Time;durP1;ratioP1;P1;durP2;ratioP2;P2;SDS_P1;SDS_P2;PMS_P1;PMS_P2;Temp;Humidity;BMP_temperature;BMP_pressure;BME280_temperature;BME280_humidity;BME280_pressure;Samples;Min_cycle;Max_cycle;Signal;HPM_P1;HPM_P2
2022/02/06 00:02:16;;;;;;;3.75;1.90;;;9.50;99.90;;;;;;5113441;28;20016;-74
2022/02/06 00:04:43;;;;;;;14.13;2.67;;;9.50;99.90;;;;;;5113786;28;20126;-75
2022/02/06 00:07:09;;;;;;;8.60;1.95;;;9.50;99.90;;;;;;5113404;28;20392;-74
2022/02/06 00:09:35;;;;;;;7.75;1.95;;;9.40;99.90;;;;;;5113383;28;20020;-73
2022/02/06 00:12:01;;;;;;;10.57;2.28;;;9.40;99.90;;;;;;5113332;28;20023;-74
2022/02/06 00:14:27;;;;;;;10.23;2.17;;;9.50;99.90;;;;;;5113621;28;20024;-74
2022/02/06 00:16:52;;;;;;;12.10;2.83;;;9.50;99.90;;;;;;5113314;28;20024;-75
2022/02/06 00:19:18;;;;;;;11.55;2.35;;;9.50;99.90;;;;;;5113262;28;20027;-75
2022/02/06 00:21:43;;;;;;;12.45;2.78;;;9.50;99.90;;;;;;5113225;28;20032;-74
2022/02/06 00:24:15;;;;;;;6.82;2.10;;;9.40;99.90;;;;;;5113711;28;20024;-73
2022/02/06 00:26:53;;;;;;;10.27;2.22;;;9.50;99.90;;;;;;5117538;28;20016;-74
2022/02/06 00:29:32;;;;;;;12.45;2.10;;;9.50;99.90;;;;;;5115652;28;20019;-76
2022/02/06 00:32:02;;;;;;;8.70;1.80;;;9.50;99.90;;;;;;5115579;28;20118;-74
2022/02/06 00:39:37;;;;;;;8.07;1.80;;;9.50;99.90;;;;;;5117014;28;20039;-74
2022/02/06 00:42:03;;;;;;;5.38;2.10;;;9.50;99.90;;;;;;5117105;28;20032;-75
2022/02/06 00:44:28;;;;;;;7.70;1.73;;;9.50;99.90;;;;;;5116808;28;20507;-73
2022/02/06 00:46:57;;;;;;;7.60;1.70;;;9.60;99.90;;;;;;5116827;28;20125;-74
2022/02/06 00:49:27;;;;;;;8.93;1.88;;;9.60;99.90;;;;;;5117064;28;20098;-73
2022/02/06 00:52:14;;;;;;;7.10;2.13;;;9.60;99.90;;;;;;5116591;28;20100;-73
2022/02/06 00:54:39;;;;;;;6.93;1.90;;;9.60;99.90;;;;;;5116937;27;20024;-74
2022/02/06 00:57:06;;;;;;;12.00;2.58;;;9.60;99.90;;;;;;5116609;28;20031;-74
2022/02/06 00:59:32;;;;;;;8.63;1.90;;;9.60;99.90;;;;;;5116807;28;20022;-75
2022/02/06 01:01:57;;;;;;;6.50;2.08;;;9.60;99.90;;;;;;5117001;28;20028;-76
2022/02/06 01:04:23;;;;;;;8.90;1.95;;;9.70;99.90;;;;;;5116108;28;20039;-74
2022/02/06 01:06:49;;;;;;;13.10;2.15;;;9.70;99.90;;;;;;5116722;28;20020;-73
2022/02/06 01:09:17;;;;;;;7.05;1.75;;;9.70;99.90;;;;;;5116652;28;20023;-73
2022/02/06 01:11:42;;;;;;;7.85;2.03;;;9.70;99.90;;;;;;5116369;28;20080;-73
2022/02/06 01:14:36;;;;;;;11.73;2.30;;;9.70;99.90;;;;;;5116298;28;20031;-74
2022/02/06 01:17:18;;;;;;;8.90;1.88;;;9.80;99.90;;;;;;5116342;28;20045;-75
2022/02/06 01:20:07;;;;;;;11.88;2.20;;;9.80;99.90;;;;;;5114654;28;20023;-73
2022/02/06 01:22:34;;;;;;;10.55;2.17;;;9.70;99.90;;;;;;5116164;28;20027;-74
2022/02/06 01:27:37;;;;;;;13.05;2.55;;;9.80;99.90;;;;;;5116020;28;20031;-74
2022/02/06 01:30:33;;;;;;;9.32;2.10;;;9.80;99.90;;;;;;5114446;28;20064;-74
2022/02/06 01:32:59;;;;;;;10.02;2.40;;;9.80;99.90;;;;;;5115984;28;20370;-73
2022/02/06 01:35:30;;;;;;;13.90;2.55;;;9.80;99.90;;;;;;5114360;28;20539;-75
2022/02/06 01:40:35;;;;;;;11.35;3.35;;;9.80;99.90;;;;;;5116099;28;20024;-75
2022/02/06 01:43:06;;;;;;;9.18;2.10;;;9.80;99.90;;;;;;5114176;28;20038;-74
2022/02/06 02:02:19;;;;;;;8.23;2.45;;;9.90;99.90;;;;;;5115464;28;20076;-75
2022/02/06 02:13:14;;;;;;;10.23;2.35;;;9.90;99.90;;;;;;5115718;28;20031;-74
2022/02/06 02:32:22;;;;;;;12.85;2.75;;;10.00;99.90;;;;;;5114731;28;20396;-73
2022/02/06 02:45:20;;;;;;;7.78;2.38;;;10.00;99.90;;;;;;5114815;28;20027;-75
2022/02/06 02:47:49;;;;;;;7.90;2.33;;;10.00;99.90;;;;;;5112483;28;20028;-74
2022/02/06 02:50:20;;;;;;;9.32;2.88;;;10.00;99.90;;;;;;5114466;28;20012;-74
2022/02/06 03:00:43;;;;;;;11.07;2.35;;;10.00;99.90;;;;;;5114559;28;20023;-74
2022/02/06 03:03:14;;;;;;;11.45;3.00;;;10.00;99.90;;;;;;5112553;28;20051;-74
2022/02/06 03:05:41;;;;;;;11.20;2.83;;;10.10;99.90;;;;;;5114477;28;20043;-74
2022/02/06 03:08:08;;;;;;;12.48;2.42;;;10.10;99.90;;;;;;5114146;28;20012;-76
2022/02/06 03:10:35;;;;;;;10.40;2.55;;;10.10;99.90;;;;;;5114174;28;20042;-75
2022/02/06 03:13:04;;;;;;;9.35;2.33;;;10.00;99.90;;;;;;5114345;27;20157;-75
2022/02/06 03:18:02;;;;;;;13.47;2.40;;;10.00;99.90;;;;;;5113991;28;20051;-74
2022/02/06 03:20:29;;;;;;;8.70;2.75;;;10.00;99.90;;;;;;5114222;28;20024;-73
2022/02/06 03:23:00;;;;;;;8.95;2.50;;;10.00;99.90;;;;;;5114149;28;20474;-75
2022/02/06 03:25:26;;;;;;;7.05;1.92;;;10.00;99.90;;;;;;5113917;28;20020;-73
2022/02/06 03:27:52;;;;;;;7.40;2.13;;;10.00;99.90;;;;;;5113855;28;20073;-73
2022/02/06 03:30:19;;;;;;;11.68;2.60;;;10.00;99.90;;;;;;5113821;28;20389;-74
2022/02/06 03:32:45;;;;;;;10.55;2.05;;;10.10;99.90;;;;;;5114083;28;20027;-75
2022/02/06 03:35:11;;;;;;;11.52;2.33;;;10.10;99.90;;;;;;5114034;28;20019;-74
2022/02/06 03:37:39;;;;;;;13.50;2.67;;;10.10;99.90;;;;;;5113736;28;20030;-75
2022/02/06 03:40:07;;;;;;;9.88;2.50;;;10.10;99.90;;;;;;5113691;28;20501;-74
2022/02/06 03:42:41;;;;;;;8.15;1.95;;;10.10;99.90;;;;;;5113616;28;20434;-74
2022/02/06 03:45:09;;;;;;;9.55;2.45;;;10.00;99.90;;;;;;5114007;28;20418;-73
2022/02/06 03:47:45;;;;;;;12.60;2.67;;;10.10;99.90;;;;;;5113619;28;20020;-73
2022/02/06 03:50:12;;;;;;;10.13;2.25;;;10.10;99.90;;;;;;5112070;28;20020;-74
2022/02/06 03:52:45;;;;;;;11.23;2.45;;;10.10;99.90;;;;;;5113560;28;20031;-75
2022/02/06 03:55:18;;;;;;;15.38;2.65;;;10.10;99.90;;;;;;5113806;28;20027;-73
2022/02/06 03:57:45;;;;;;;11.63;3.35;;;10.10;99.90;;;;;;5113827;28;20020;-75
2022/02/06 04:00:11;;;;;;;14.18;2.85;;;10.10;99.90;;;;;;5115908;28;20077;-74
2022/02/06 04:02:37;;;;;;;9.70;2.30;;;10.10;99.90;;;;;;5117441;28;20048;-75
2022/02/06 04:05:03;;;;;;;7.70;2.72;;;10.10;99.90;;;;;;5117951;28;20055;-74
2022/02/06 04:07:28;;;;;;;11.23;2.38;;;10.10;99.90;;;;;;5117616;28;20565;-75
2022/02/06 04:09:56;;;;;;;8.35;2.05;;;10.10;99.90;;;;;;5117813;28;20361;-74
2022/02/06 04:12:23;;;;;;;11.75;2.53;;;10.10;99.90;;;;;;5117820;28;20027;-74
2022/02/06 04:15:02;;;;;;;12.73;2.47;;;10.10;99.90;;;;;;5116216;28;20057;-75
2022/02/06 04:17:31;;;;;;;13.68;3.17;;;10.10;99.90;;;;;;5117468;28;20023;-76
2022/02/06 04:19:57;;;;;;;13.13;2.63;;;10.10;99.90;;;;;;5116099;28;20443;-75
2022/02/06 04:22:23;;;;;;;13.30;3.22;;;10.10;99.90;;;;;;5117312;28;20070;-75
2022/02/06 04:24:50;;;;;;;14.57;2.72;;;10.10;99.90;;;;;;5117577;28;20024;-74
2022/02/06 04:27:16;;;;;;;8.23;2.45;;;10.10;99.90;;;;;;5117255;28;20024;-75
2022/02/06 04:29:42;;;;;;;8.80;2.22;;;10.20;99.90;;;;;;5117133;28;20020;-75
2022/02/06 04:32:08;;;;;;;13.70;3.30;;;10.10;99.90;;;;;;5117156;28;20080;-74
2022/02/06 04:34:34;;;;;;;11.95;2.75;;;10.10;99.90;;;;;;5117130;28;20385;-74
2022/02/06 04:53:30;;;;;;;10.20;2.55;;;10.20;99.90;;;;;;5117009;28;19994;-75
2022/02/06 05:20:31;;;;;;;13.07;2.80;;;10.20;99.90;;;;;;5115452;28;20506;-74
2022/02/06 05:23:04;;;;;;;10.10;2.50;;;10.20;99.90;;;;;;5114890;28;20024;-75
2022/02/06 05:30:26;;;;;;;11.32;2.80;;;10.20;99.90;;;;;;5115500;28;20421;-74
2022/02/06 05:35:21;;;;;;;12.63;3.70;;;10.20;99.90;;;;;;5114835;28;20031;-74
2022/02/06 05:37:50;;;;;;;10.65;2.83;;;10.20;99.90;;;;;;5113515;28;20455;-74
2022/02/06 05:40:16;;;;;;;8.60;3.00;;;10.20;99.90;;;;;;5113492;28;20106;-73
2022/02/06 05:42:43;;;;;;;12.88;2.97;;;10.20;99.90;;;;;;5114648;28;20114;-74
2022/02/06 05:45:10;;;;;;;10.65;2.70;;;10.20;99.90;;;;;;5114681;28;20050;-74
2022/02/06 05:47:35;;;;;;;15.20;3.03;;;10.20;99.90;;;;;;5114659;28;20535;-75
2022/02/06 05:50:04;;;;;;;11.20;2.67;;;10.20;99.90;;;;;;5114556;28;20020;-74
2022/02/06 05:52:30;;;;;;;13.48;3.22;;;10.30;99.90;;;;;;5114561;28;20366;-74
2022/02/06 05:54:56;;;;;;;13.30;3.55;;;10.30;99.90;;;;;;5114432;28;20031;-74
2022/02/06 05:57:22;;;;;;;9.80;2.80;;;10.30;99.90;;;;;;5114484;28;20020;-74
2022/02/06 05:59:49;;;;;;;13.20;2.75;;;10.30;99.90;;;;;;5114473;28;20020;-74
2022/02/06 06:02:15;;;;;;;11.63;2.38;;;10.30;99.90;;;;;;5114353;28;20540;-73
2022/02/06 06:04:41;;;;;;;16.23;3.40;;;10.30;99.90;;;;;;5068088;28;1330833;-73
2022/02/06 06:07:06;;;;;;;13.65;2.92;;;10.30;99.90;;;;;;5115264;28;20024;-74
2022/02/06 06:09:32;;;;;;;8.63;2.58;;;10.30;99.90;;;;;;5115191;28;20016;-75
2022/02/06 06:11:58;;;;;;;9.80;2.63;;;10.30;99.90;;;;;;5115205;28;20374;-74
2022/02/06 06:14:28;;;;;;;13.55;3.05;;;10.40;99.90;;;;;;5115111;28;20019;-73
2022/02/06 06:16:54;;;;;;;;;;;10.30;99.90;;;;;;5113976;28;20034;-75
2022/02/06 06:19:20;;;;;;;14.35;2.90;;;10.40;99.90;;;;;;5115338;28;19904;-74
2022/02/06 06:21:47;;;;;;;18.38;3.20;;;10.30;99.90;;;;;;5114163;28;20026;-74
2022/02/06 06:24:17;;;;;;;16.63;3.53;;;10.40;99.90;;;;;;5114931;27;20039;-73
2022/02/06 06:26:43;;;;;;;10.45;2.80;;;10.40;99.90;;;;;;5115209;28;20473;-74
2022/02/06 06:29:09;;;;;;;10.30;2.85;;;10.40;99.90;;;;;;5114823;28;20046;-74
2022/02/06 06:31:34;;;;;;;11.93;2.78;;;10.40;99.90;;;;;;5114824;28;20023;-74
2022/02/06 06:34:00;;;;;;;16.40;4.07;;;10.40;99.90;;;;;;5115053;28;20027;-73
2022/02/06 06:36:29;;;;;;;16.80;3.05;;;10.40;99.90;;;;;;5114993;28;20028;-74
2022/02/06 06:38:55;;;;;;;8.43;2.87;;;10.40;99.90;;;;;;5113418;28;20042;-75
2022/02/06 06:41:21;;;;;;;13.75;2.47;;;10.50;99.90;;;;;;5114765;28;20281;-74
2022/02/06 06:43:46;;;;;;;14.63;2.72;;;10.40;99.90;;;;;;5113322;28;20022;-75
2022/02/06 06:46:12;;;;;;;12.20;2.35;;;10.50;99.90;;;;;;5114538;28;20023;-75
2022/02/06 06:48:39;;;;;;;13.80;3.33;;;10.50;99.90;;;;;;5114463;28;20037;-75
2022/02/06 06:51:05;;;;;;;10.68;2.90;;;10.50;99.90;;;;;;5114442;28;20028;-74
2022/02/06 06:53:33;;;;;;;16.63;3.42;;;10.50;99.90;;;;;;5114381;28;20012;-73
2022/02/06 06:56:04;;;;;;;12.95;2.47;;;10.50;99.90;;;;;;5114334;28;20067;-75
2022/02/06 06:58:39;;;;;;;10.27;2.22;;;10.50;99.90;;;;;;5112782;28;20030;-74
2022/02/06 07:03:31;;;;;;;11.27;2.90;;;10.50;99.90;;;;;;5114438;28;20075;-75
2022/02/06 07:05:58;;;;;;;10.93;2.70;;;10.50;99.90;;;;;;5114187;28;20051;-74
2022/02/06 07:08:24;;;;;;;9.30;2.40;;;10.40;99.90;;;;;;5114164;28;20394;-74
2022/02/06 07:10:50;;;;;;;9.40;2.75;;;10.40;99.90;;;;;;5114109;28;20028;-74
2022/02/06 07:13:18;;;;;;;11.27;2.60;;;10.40;99.90;;;;;;5113910;28;20024;-73
2022/02/06 07:15:44;;;;;;;9.98;2.80;;;10.40;99.90;;;;;;5114327;28;20023;-74
2022/02/06 07:18:10;;;;;;;11.55;2.53;;;10.40;99.90;;;;;;5114003;28;20050;-75
2022/02/06 07:20:37;;;;;;;12.52;2.80;;;10.40;99.90;;;;;;5113977;28;20396;-76
2022/02/06 07:23:04;;;;;;;10.10;1.85;;;10.40;99.90;;;;;;5113870;28;20020;-74
2022/02/06 07:25:29;;;;;;;11.80;2.30;;;10.40;99.90;;;;;;5114443;28;20099;-74
2022/02/06 07:27:56;;;;;;;8.77;2.85;;;10.40;99.90;;;;;;5112619;28;20187;-73
2022/02/06 07:30:22;;;;;;;12.68;2.78;;;10.40;99.90;;;;;;5113851;28;20015;-74
2022/02/06 07:32:48;;;;;;;9.75;2.38;;;10.40;99.90;;;;;;5113751;28;20027;-74
2022/02/06 07:35:14;;;;;;;16.85;3.13;;;10.40;99.90;;;;;;5113730;28;20095;-73
2022/02/06 07:37:45;;;;;;;12.75;2.63;;;10.40;99.90;;;;;;5113741;28;20046;-74
2022/02/06 07:40:12;;;;;;;16.15;2.42;;;10.40;99.90;;;;;;5113704;28;20027;-74
2022/02/06 07:42:38;;;;;;;8.00;2.22;;;10.40;99.90;;;;;;5113604;28;20504;-74
2022/02/06 07:45:05;;;;;;;11.90;2.70;;;10.50;99.90;;;;;;5113671;28;20016;-74
2022/02/06 07:47:30;;;;;;;12.68;3.42;;;10.50;99.90;;;;;;5113640;28;20431;-74
2022/02/06 07:49:59;;;;;;;11.75;3.58;;;10.40;99.90;;;;;;5113845;28;20019;-74
2022/02/06 07:52:25;;;;;;;10.68;2.72;;;10.50;99.90;;;;;;5113871;28;20390;-74
2022/02/06 07:54:52;;;;;;;10.15;3.33;;;10.50;99.90;;;;;;5113480;28;20059;-74
2022/02/06 07:57:19;;;;;;;6.03;2.20;;;10.50;99.90;;;;;;5113577;28;20050;-74
2022/02/06 07:59:45;;;;;;;9.55;2.55;;;10.50;99.90;;;;;;5113596;28;20089;-74
2022/02/06 08:02:11;;;;;;;7.47;2.05;;;10.50;99.90;;;;;;5113427;28;20028;-75
2022/02/06 08:04:38;;;;;;;7.75;2.38;;;10.50;99.90;;;;;;5113075;28;20068;-75
2022/02/06 08:07:05;;;;;;;8.80;2.95;;;10.50;99.90;;;;;;5113491;28;20088;-74
2022/02/06 08:12:10;;;;;;;10.25;2.17;;;10.50;99.90;;;;;;5113748;28;20074;-74
2022/02/06 08:17:22;;;;;;;7.15;2.17;;;10.60;99.90;;;;;;5113674;28;20456;-74
2022/02/06 08:19:48;;;;;;;8.68;2.65;;;10.50;99.90;;;;;;5113364;28;20015;-75
2022/02/06 08:22:15;;;;;;;9.20;2.35;;;10.60;99.90;;;;;;5113471;28;20035;-75
2022/02/06 08:24:41;;;;;;;7.93;2.38;;;10.60;99.90;;;;;;5113307;28;20081;-74
2022/02/06 08:27:08;;;;;;;10.32;2.13;;;10.60;99.90;;;;;;5113299;28;20020;-74
2022/02/06 08:29:36;;;;;;;14.23;3.78;;;10.60;99.90;;;;;;5113789;28;20065;-73
2022/02/06 08:32:05;;;;;;;10.75;2.72;;;10.60;99.90;;;;;;5113748;28;20019;-74
2022/02/06 08:34:30;;;;;;;14.20;3.72;;;10.60;99.90;;;;;;5113209;28;20023;-74
2022/02/06 08:36:56;;;;;;;11.25;3.40;;;10.60;99.90;;;;;;5113149;28;20031;-75
2022/02/06 08:39:21;;;;;;;13.15;3.33;;;10.60;99.90;;;;;;5113409;28;20024;-74
2022/02/06 08:41:47;;;;;;;12.70;3.17;;;10.60;99.90;;;;;;5113036;28;20401;-74
2022/02/06 08:44:12;;;;;;;13.43;3.20;;;10.60;99.90;;;;;;5113341;28;20020;-74
2022/02/06 08:46:38;;;;;;;12.57;3.42;;;10.60;99.90;;;;;;5116265;28;20080;-74
2022/02/06 08:49:04;;;;;;;12.73;2.72;;;10.70;99.90;;;;;;5117105;28;20092;-75
2022/02/06 08:51:29;;;;;;;9.70;2.80;;;10.70;99.90;;;;;;5117084;28;20125;-75
2022/02/06 08:53:55;;;;;;;10.48;2.35;;;10.70;99.90;;;;;;5116651;28;20028;-74
2022/02/06 08:56:26;;;;;;;9.95;2.97;;;10.70;99.90;;;;;;5116694;28;20023;-74
2022/02/06 08:58:52;;;;;;;12.93;2.40;;;10.70;99.90;;;;;;5115122;28;20026;-73
2022/02/06 09:01:17;;;;;;;12.30;2.70;;;10.70;99.90;;;;;;5115244;28;20416;-74
2022/02/06 09:03:43;;;;;;;15.70;3.08;;;10.70;99.90;;;;;;5116337;28;20048;-74
2022/02/06 09:06:11;;;;;;;9.35;2.53;;;10.70;99.90;;;;;;5116564;28;20023;-73
2022/02/06 09:08:37;;;;;;;9.07;3.00;;;10.70;99.90;;;;;;5116515;28;20043;-74
2022/02/06 09:11:03;;;;;;;11.15;2.60;;;10.70;99.90;;;;;;5116729;28;20030;-74
2022/02/06 09:13:30;;;;;;;13.75;3.65;;;10.70;99.90;;;;;;5116411;28;20019;-74
2022/02/06 09:15:56;;;;;;;14.85;3.55;;;10.80;99.90;;;;;;5116334;28;20043;-73
2022/02/06 09:18:21;;;;;;;14.23;3.15;;;10.80;99.90;;;;;;5116562;28;20105;-75
2022/02/06 09:20:47;;;;;;;11.77;2.97;;;10.80;99.90;;;;;;5116239;28;20512;-75
2022/02/06 09:23:13;;;;;;;12.43;2.85;;;10.90;99.90;;;;;;5116434;28;20024;-74
2022/02/06 09:25:38;;;;;;;8.60;2.88;;;10.90;99.90;;;;;;5116196;28;20178;-74
2022/02/06 09:28:04;;;;;;;17.33;3.17;;;10.90;99.90;;;;;;5116130;28;20389;-75
2022/02/06 09:30:30;;;;;;;11.32;2.40;;;10.90;99.90;;;;;;5116565;28;20153;-75
2022/02/06 09:35:23;;;;;;;10.25;3.33;;;10.90;99.90;;;;;;5116276;28;20028;-75
2022/02/06 09:37:49;;;;;;;11.40;2.95;;;11.00;99.90;;;;;;5116453;28;20034;-74
2022/02/06 09:40:16;;;;;;;12.00;3.03;;;11.00;99.90;;;;;;5115914;27;20081;-75
2022/02/06 09:42:49;;;;;;;12.45;2.90;;;11.00;99.90;;;;;;5114475;28;20439;-74
2022/02/06 09:45:15;;;;;;;16.85;3.47;;;11.00;99.90;;;;;;5116083;28;20016;-74
2022/02/06 09:47:43;;;;;;;15.32;3.70;;;11.00;99.90;;;;;;5116002;28;20406;-73
2022/02/06 09:50:09;;;;;;;13.23;2.97;;;11.00;99.90;;;;;;5115681;28;20028;-74
2022/02/06 09:52:38;;;;;;;14.48;3.00;;;11.00;99.90;;;;;;5114307;28;20030;-73
2022/02/06 09:55:07;;;;;;;11.15;2.97;;;11.00;99.90;;;;;;5115530;28;20481;-74
2022/02/06 09:57:51;;;;;;;16.30;4.25;;;11.00;99.90;;;;;;5114313;28;20028;-76
2022/02/06 10:00:19;;;;;;;10.45;2.97;;;11.00;99.90;;;;;;5115809;28;20367;-75
2022/02/06 10:02:47;;;;;;;8.40;2.55;;;10.90;99.90;;;;;;5115128;28;20043;-74
2022/02/06 10:05:17;;;;;;;12.43;3.03;;;10.90;99.90;;;;;;5115688;28;20027;-74
2022/02/06 10:07:53;;;;;;;11.93;2.93;;;10.90;99.90;;;;;;5115342;28;20019;-74
2022/02/06 10:10:22;;;;;;;10.50;2.88;;;10.90;99.90;;;;;;5115650;28;20035;-74
2022/02/06 10:12:52;;;;;;;7.45;2.05;;;11.00;99.90;;;;;;5115256;27;20019;-74
2022/02/06 10:15:19;;;;;;;13.23;2.85;;;10.90;99.90;;;;;;5115555;28;20053;-74
2022/02/06 10:17:46;;;;;;;9.95;2.83;;;11.00;99.90;;;;;;5115129;28;20443;-75
2022/02/06 10:20:18;;;;;;;11.27;3.28;;;10.90;99.90;;;;;;5115079;28;20026;-75
2022/02/06 10:22:54;;;;;;;11.15;2.97;;;11.00;99.90;;;;;;5115218;28;20019;-74
2022/02/06 10:25:20;;;;;;;9.93;2.60;;;11.00;99.90;;;;;;5115283;28;20030;-75
2022/02/06 10:28:59;;;;;;;10.95;2.65;;;11.00;99.90;;;;;;5114901;28;20102;-74
2022/02/06 10:30:52;;;;;;;8.65;2.40;;;11.00;99.90;;;;;;5107274;28;20427;-74
2022/02/06 10:33:22;;;;;;;10.73;3.30;;;11.00;99.90;;;;;;5114823;28;20027;-73
2022/02/06 10:35:53;;;;;;;11.23;2.95;;;11.00;99.90;;;;;;5115093;28;20023;-73
2022/02/06 10:38:28;;;;;;;11.02;3.78;;;11.10;99.90;;;;;;5113443;28;20032;-74
2022/02/06 10:41:12;;;;;;;10.98;2.50;;;11.10;99.90;;;;;;5115031;28;20081;-73
2022/02/06 10:43:53;;;;;;;8.45;2.40;;;11.20;99.90;;;;;;5114605;28;20029;-73
2022/02/06 10:46:19;;;;;;;10.20;2.92;;;11.30;99.90;;;;;;5113018;28;20107;-74
2022/02/06 10:48:48;;;;;;;11.07;2.95;;;11.30;99.90;;;;;;5114529;28;20103;-73
2022/02/06 10:51:44;;;;;;;10.40;2.80;;;11.30;99.90;;;;;;5114433;28;20022;-75
2022/02/06 10:54:13;;;;;;;12.27;3.38;;;11.30;99.90;;;;;;5114651;28;20541;-75
2022/02/06 10:57:01;;;;;;;11.02;3.13;;;11.30;99.90;;;;;;5114425;28;20023;-75
2022/02/06 10:59:28;;;;;;;7.32;2.88;;;11.40;99.90;;;;;;5114706;28;20020;-73
2022/02/06 11:01:54;;;;;;;11.48;2.28;;;11.40;99.90;;;;;;5114257;28;20427;-73
2022/02/06 11:04:32;;;;;;;8.20;2.17;;;11.40;99.90;;;;;;5113897;28;20035;-74
2022/02/06 11:07:19;;;;;;;9.13;2.50;;;11.40;99.90;;;;;;5114548;28;20073;-74
2022/02/06 11:09:46;;;;;;;10.77;2.45;;;11.60;99.90;;;;;;5114039;28;20103;-75
2022/02/06 11:12:13;;;;;;;7.95;2.08;;;11.70;99.90;;;;;;5114032;28;20020;-75
2022/02/06 11:14:46;;;;;;;7.80;2.40;;;11.80;99.90;;;;;;5114375;28;20035;-74
2022/02/06 11:17:33;;;;;;;10.23;2.70;;;11.90;99.90;;;;;;5112503;28;20027;-75
2022/02/06 11:20:11;;;;;;;9.43;2.92;;;11.90;99.90;;;;;;5114321;28;20031;-73
2022/02/06 11:22:49;;;;;;;9.15;2.50;;;11.90;99.90;;;;;;5114454;28;20023;-74
2022/02/06 11:25:15;;;;;;;10.35;2.42;;;11.90;99.90;;;;;;5114281;28;20467;-74
2022/02/06 11:27:41;;;;;;;7.05;2.35;;;11.90;99.90;;;;;;5113907;28;20094;-75
2022/02/06 11:30:08;;;;;;;9.05;2.30;;;11.90;99.90;;;;;;5113876;28;20020;-73
2022/02/06 11:32:36;;;;;;;11.02;2.97;;;11.90;99.90;;;;;;5114102;28;20035;-75
2022/02/06 11:35:10;;;;;;;8.07;2.25;;;11.90;99.90;;;;;;5113792;28;20024;-75
2022/02/06 11:43:48;;;;;;;9.65;3.28;;;12.00;99.90;;;;;;5113642;28;20429;-75
2022/02/06 11:46:48;;;;;;;13.02;2.92;;;11.90;99.90;;;;;;5114051;28;20489;-74
2022/02/06 11:49:16;;;;;;;12.07;3.03;;;11.90;99.90;;;;;;5113954;28;20385;-75
2022/02/06 11:51:59;;;;;;;9.38;2.80;;;11.80;99.90;;;;;;5113859;28;20035;-75
2022/02/06 11:54:33;;;;;;;12.60;3.20;;;11.90;99.90;;;;;;5113569;28;20028;-75
2022/02/06 12:00:06;;;;;;;11.80;2.85;;;12.10;99.90;;;;;;5113254;28;20153;-74
2022/02/06 12:02:35;;;;;;;8.32;2.35;;;12.20;99.90;;;;;;5113235;28;20028;-74
2022/02/06 12:05:28;;;;;;;11.43;2.60;;;12.30;99.90;;;;;;5113565;28;20027;-76
2022/02/06 12:08:00;;;;;;;8.07;2.47;;;12.40;99.90;;;;;;5113796;28;20028;-74
2022/02/06 12:10:34;;;;;;;11.98;2.30;;;12.50;99.90;;;;;;5113698;28;20024;-75
2022/02/06 12:16:01;;;;;;;9.70;2.78;;;12.60;99.90;;;;;;5114185;28;20057;-74
2022/02/06 12:18:32;;;;;;;18.10;3.08;;;12.70;99.90;;;;;;5114008;28;20115;-74
2022/02/06 12:21:19;;;;;;;8.63;3.05;;;12.70;99.90;;;;;;5115565;28;20016;-74
2022/02/06 12:23:54;;;;;;;13.50;4.22;;;12.80;99.90;;;;;;5115817;28;20019;-74
2022/02/06 12:26:32;;;;;;;12.95;3.78;;;13.00;99.90;;;;;;5116017;28;20020;-74
2022/02/06 12:29:02;;;;;;;10.80;3.17;;;13.00;99.90;;;;;;5117855;28;20369;-75
2022/02/06 12:31:31;;;;;;;16.67;4.28;;;13.10;99.90;;;;;;5117204;28;20427;-75
2022/02/06 12:39:25;;;;;;;11.65;3.22;;;13.20;99.90;;;;;;5117347;28;20077;-74
2022/02/06 12:41:51;;;;;;;11.55;3.10;;;13.10;99.90;;;;;;5116959;28;20110;-74
2022/02/06 12:44:19;;;;;;;12.25;3.40;;;13.10;99.90;;;;;;5117008;28;20512;-74
2022/02/06 12:46:47;;;;;;;12.93;3.50;;;13.10;99.90;;;;;;5117257;28;20061;-75
2022/02/06 12:49:17;;;;;;;13.30;3.53;;;13.20;99.90;;;;;;5116873;28;20023;-74
2022/02/06 12:51:42;;;;;;;15.45;4.32;;;13.30;99.90;;;;;;5117179;28;20055;-74
2022/02/06 12:54:11;;;;;;;16.98;4.07;;;13.20;99.90;;;;;;5117016;28;20031;-74
2022/02/06 12:56:39;;;;;;;15.48;3.55;;;13.20;99.90;;;;;;5117071;28;20063;-75
2022/02/06 12:59:06;;;;;;;17.33;4.85;;;13.30;99.90;;;;;;5116659;28;20079;-75
2022/02/06 13:01:43;;;;;;;14.23;3.63;;;13.50;99.90;;;;;;5116603;28;20027;-74
2022/02/06 13:04:11;;;;;;;15.15;5.30;;;13.50;99.90;;;;;;5116248;28;20067;-74
2022/02/06 13:06:47;;;;;;;17.40;4.80;;;13.50;99.90;;;;;;5116761;28;20530;-74
2022/02/06 13:09:27;;;;;;;14.57;3.60;;;13.50;99.90;;;;;;5116445;27;20026;-74
2022/02/06 13:12:25;;;;;;;14.32;4.03;;;13.60;99.90;;;;;;5116802;28;20055;-74
2022/02/06 13:15:00;;;;;;;17.75;4.47;;;13.70;99.90;;;;;;5116417;28;20031;-75
2022/02/06 13:17:49;;;;;;;14.20;4.60;;;13.80;99.90;;;;;;5116681;28;20431;-74
2022/02/06 13:33:30;;;;;;;14.40;3.67;;;13.50;99.90;;;;;;5115863;28;20409;-75
2022/02/06 13:36:08;;;;;;;16.35;4.07;;;13.50;99.90;;;;;;5114462;28;20051;-76
2022/02/06 13:38:34;;;;;;;14.75;4.20;;;13.50;99.90;;;;;;5116268;28;20107;-75
2022/02/06 13:41:01;;;;;;;16.17;4.32;;;13.60;99.90;;;;;;5116188;28;20047;-75
2022/02/06 13:43:37;;;;;;;14.30;3.65;;;13.50;99.90;;;;;;5115825;28;20032;-74
2022/02/06 13:46:15;;;;;;;19.15;4.95;;;13.50;99.90;;;;;;5115821;28;20483;-75
2022/02/06 13:48:44;;;;;;;17.70;4.22;;;13.60;99.90;;;;;;5115765;28;20026;-74
2022/02/06 13:51:10;;;;;;;18.27;4.88;;;13.50;99.90;;;;;;5115656;28;20447;-74
2022/02/06 13:53:36;;;;;;;18.08;3.65;;;13.40;99.90;;;;;;5115869;28;20570;-74
2022/02/06 13:56:10;;;;;;;22.75;5.15;;;13.30;99.90;;;;;;5115565;28;20015;-73
2022/02/06 13:58:35;;;;;;;15.68;4.88;;;13.20;99.90;;;;;;5115872;28;20023;-74
2022/02/06 14:01:06;;;;;;;14.55;3.70;;;13.10;99.90;;;;;;5115699;27;20034;-73
2022/02/06 14:03:48;;;;;;;28.00;8.23;;;13.10;99.90;;;;;;5115310;28;20104;-74
2022/02/06 14:06:24;;;;;;;18.73;5.80;;;13.00;99.90;;;;;;5115981;28;20031;-73
2022/02/06 14:09:14;;;;;;;19.50;5.70;;;12.90;99.90;;;;;;5115642;28;20376;-75
2022/02/06 14:11:56;;;;;;;42.88;15.13;;;12.80;99.90;;;;;;5115903;28;20015;-74
2022/02/06 14:14:24;;;;;;;19.65;4.45;;;12.80;99.90;;;;;;5115596;28;20031;-74
2022/02/06 14:16:55;;;;;;;15.45;3.80;;;12.80;99.90;;;;;;5115146;28;20023;-74
2022/02/06 14:19:39;;;;;;;17.15;4.38;;;12.80;99.90;;;;;;5115690;28;20480;-76
2022/02/06 14:22:05;;;;;;;21.58;6.72;;;12.80;99.90;;;;;;5115588;28;20106;-73
2022/02/06 14:24:50;;;;;;;15.43;4.60;;;12.80;99.90;;;;;;5115016;28;20103;-75
2022/02/06 14:27:27;;;;;;;18.98;4.55;;;12.80;99.90;;;;;;5115052;27;20041;-74
2022/02/06 14:29:58;;;;;;;17.40;3.65;;;12.80;99.90;;;;;;5115252;28;20481;-74
2022/02/06 14:32:24;;;;;;;22.05;4.72;;;12.80;99.90;;;;;;5114915;28;20121;-76
2022/02/06 14:35:08;;;;;;;20.60;5.55;;;12.90;99.90;;;;;;5114809;28;20480;-75
2022/02/06 14:37:50;;;;;;;19.95;4.70;;;12.90;99.90;;;;;;5115400;28;20023;-75
2022/02/06 14:43:30;;;;;;;15.45;3.70;;;12.80;99.90;;;;;;5092337;28;20036;-75
2022/02/06 14:45:55;;;;;;;16.88;4.15;;;12.80;99.90;;;;;;5114988;28;20496;-74
2022/02/06 14:48:25;;;;;;;14.13;3.80;;;12.90;99.90;;;;;;5114530;28;20019;-73
2022/02/06 14:50:51;;;;;;;14.27;4.43;;;12.90;99.90;;;;;;5114544;28;20023;-75
2022/02/06 14:53:19;;;;;;;23.15;4.32;;;12.90;99.90;;;;;;5114498;28;20265;-76
2022/02/06 14:55:46;;;;;;;19.17;5.45;;;12.80;99.90;;;;;;5114667;28;20015;-75
2022/02/06 14:58:12;;;;;;;17.30;4.45;;;12.80;99.90;;;;;;5114400;28;20019;-75
2022/02/06 15:00:38;;;;;;;18.70;5.82;;;12.80;99.90;;;;;;5114396;28;20016;-74
2022/02/06 15:03:05;;;;;;;16.58;4.10;;;12.80;99.90;;;;;;5114014;28;20511;-74
2022/02/06 15:05:31;;;;;;;19.27;3.38;;;12.80;99.90;;;;;;5114248;28;20090;-75
2022/02/06 15:07:57;;;;;;;24.17;5.15;;;12.90;99.90;;;;;;5114466;28;20049;-74
2022/02/06 15:10:23;;;;;;;15.32;3.70;;;12.90;99.90;;;;;;5114778;28;20027;-73
2022/02/06 15:12:49;;;;;;;17.77;3.83;;;12.90;99.90;;;;;;5114159;28;20055;-76
2022/02/06 15:15:17;;;;;;;22.30;4.43;;;12.90;99.90;;;;;;5114668;28;20024;-75
2022/02/06 15:17:43;;;;;;;18.60;3.80;;;12.90;99.90;;;;;;5114074;28;20023;-75
2022/02/06 15:20:10;;;;;;;12.63;3.70;;;12.90;99.90;;;;;;5114040;28;20099;-75
2022/02/06 15:22:36;;;;;;;12.35;2.60;;;12.90;99.90;;;;;;5113219;28;20028;-74
2022/02/06 15:25:02;;;;;;;9.90;2.75;;;12.90;99.90;;;;;;5114220;28;20503;-75
2022/02/06 15:27:28;;;;;;;11.27;3.55;;;12.90;99.90;;;;;;5113937;28;20385;-74
2022/02/06 15:29:54;;;;;;;10.20;2.78;;;12.90;99.90;;;;;;5112612;28;20378;-74
2022/02/06 15:32:20;;;;;;;15.27;3.20;;;12.80;99.90;;;;;;5112523;28;20127;-74
2022/02/06 15:34:46;;;;;;;15.15;4.60;;;12.80;99.90;;;;;;5113704;28;20019;-74
2022/02/06 15:37:14;;;;;;;16.88;3.25;;;12.70;99.90;;;;;;5113984;28;20492;-74
2022/02/06 15:39:40;;;;;;;13.00;2.92;;;12.70;99.90;;;;;;5113724;28;20016;-75